Time;durP1;ratioP1;P1;durP2;ratioP2;P2;SDS_P1;SDS_P2;PMS_P1;PMS_P2;Temp;Humidity;BMP_temperature;BMP_pressure;BME280_temperature;BME280_humidity;BME280_pressure;Samples;Min_cycle;Max_cycle;Signal;HPM_P1;HPM_P2
2022/08/26 00:00:41;;;;;;;6.80;1.80;;;21.40;99.90;;;;;;5051064;28;20045;-62
2022/08/26 00:03:06;;;;;;;7.53;2.20;;;21.40;99.90;;;;;;5051439;28;20025;-63
2022/08/26 00:05:32;;;;;;;7.85;2.08;;;21.40;99.90;;;;;;5051276;28;20478;-62
2022/08/26 00:07:58;;;;;;;8.45;1.85;;;21.40;99.90;;;;;;5051863;28;20063;-63
2022/08/26 00:10:24;;;;;;;5.13;2.00;;;21.40;99.90;;;;;;5051376;28;20541;-62
2022/08/26 00:12:50;;;;;;;5.20;1.40;;;21.30;99.90;;;;;;5051262;28;20098;-63
2022/08/26 00:15:20;;;;;;;7.93;1.83;;;21.30;99.90;;;;;;5051110;28;20029;-62
2022/08/26 00:17:47;;;;;;;6.00;1.83;;;21.30;99.90;;;;;;5050937;28;20509;-62
2022/08/26 00:20:30;;;;;;;6.32;1.85;;;21.30;99.90;;;;;;5051668;28;20362;-62
2022/08/26 00:22:56;;;;;;;5.95;1.75;;;21.40;99.90;;;;;;5051230;28;20025;-62
2022/08/26 00:25:22;;;;;;;9.13;2.08;;;21.40;99.90;;;;;;5051407;28;20017;-62
2022/08/26 00:27:48;;;;;;;7.13;1.75;;;21.40;99.90;;;;;;5051151;28;20037;-62
2022/08/26 00:30:17;;;;;;;8.38;2.20;;;21.30;99.90;;;;;;5051347;28;20579;-63
2022/08/26 00:32:43;;;;;;;6.95;1.63;;;21.40;99.90;;;;;;5050946;28;20036;-62
2022/08/26 00:35:10;;;;;;;8.75;2.13;;;21.30;99.90;;;;;;5050875;28;20029;-66
2022/08/26 00:37:36;;;;;;;6.97;1.88;;;21.30;99.90;;;;;;5050841;28;20048;-63
2022/08/26 00:40:08;;;;;;;10.65;2.45;;;21.30;99.90;;;;;;5051214;28;20021;-62
2022/08/26 00:42:34;;;;;;;5.53;1.77;;;21.30;99.90;;;;;;5051070;28;20036;-62
2022/08/26 00:45:01;;;;;;;4.93;2.25;;;21.30;99.90;;;;;;5049503;28;20029;-62
2022/08/26 00:47:29;;;;;;;7.15;1.90;;;21.20;99.90;;;;;;5049470;28;20112;-62
2022/08/26 00:49:55;;;;;;;9.32;1.85;;;21.30;99.90;;;;;;5051355;28;20029;-62
2022/08/26 00:52:23;;;;;;;5.85;2.17;;;21.20;99.90;;;;;;5051010;28;20280;-62
2022/08/26 00:54:55;;;;;;;8.88;2.00;;;21.20;99.90;;;;;;5050558;28;20389;-62
2022/08/26 00:57:22;;;;;;;7.65;2.00;;;21.20;99.90;;;;;;5050834;28;20025;-62
2022/08/26 00:59:55;;;;;;;7.10;2.22;;;21.10;99.90;;;;;;5050793;28;20041;-62
2022/08/26 01:02:22;;;;;;;7.05;2.17;;;21.10;99.90;;;;;;5050748;28;20485;-62
2022/08/26 01:04:54;;;;;;;5.82;1.95;;;21.10;99.90;;;;;;5050785;28;20104;-62
2022/08/26 01:07:20;;;;;;;;;;;21.10;99.90;;;;;;5051450;28;20111;-62
2022/08/26 01:09:46;;;;;;;7.32;1.85;;;21.10;99.90;;;;;;5051123;28;19952;-62
2022/08/26 01:12:13;;;;;;;8.27;1.60;;;21.10;99.90;;;;;;5050438;28;20453;-62
2022/08/26 01:14:39;;;;;;;8.73;2.00;;;21.00;99.90;;;;;;5052007;28;20021;-62
2022/08/26 01:17:07;;;;;;;7.50;1.73;;;21.00;99.90;;;;;;5054244;28;20436;-62
2022/08/26 01:19:42;;;;;;;5.57;1.95;;;21.10;99.90;;;;;;5054604;28;20410;-62
2022/08/26 01:22:10;;;;;;;5.40;1.70;;;21.00;99.90;;;;;;5054627;28;20116;-62
2022/08/26 01:24:37;;;;;;;6.50;2.40;;;21.10;99.90;;;;;;5054318;28;20021;-62
2022/08/26 01:27:06;;;;;;;5.57;1.80;;;21.10;99.90;;;;;;5054200;28;20048;-63
2022/08/26 01:29:34;;;;;;;9.38;2.15;;;21.00;99.90;;;;;;5054433;28;20080;-63
2022/08/26 01:32:00;;;;;;;6.70;2.03;;;20.90;99.90;;;;;;5054258;28;20025;-62
2022/08/26 01:34:33;;;;;;;7.90;2.40;;;20.90;99.90;;;;;;5054300;28;20500;-62
2022/08/26 01:37:12;;;;;;;6.70;2.00;;;21.00;99.90;;;;;;5054077;28;20021;-62
2022/08/26 01:39:39;;;;;;;8.43;2.20;;;21.00;99.90;;;;;;5054321;28;20490;-62
2022/08/26 01:42:08;;;;;;;7.25;2.03;;;21.00;99.90;;;;;;5054176;28;20125;-61
2022/08/26 01:44:39;;;;;;;8.68;2.15;;;21.00;99.90;;;;;;5053986;28;20417;-62
2022/08/26 01:47:07;;;;;;;10.70;2.70;;;21.00;99.90;;;;;;5053787;28;20044;-61
2022/08/26 01:49:35;;;;;;;8.93;2.60;;;21.00;99.90;;;;;;5054299;28;20024;-62
2022/08/26 01:52:02;;;;;;;7.97;2.25;;;20.90;99.90;;;;;;5053821;28;20055;-62
2022/08/26 01:54:28;;;;;;;7.97;2.85;;;20.90;99.90;;;;;;5053979;28;20025;-62
2022/08/26 01:56:53;;;;;;;8.98;2.78;;;20.90;99.90;;;;;;5053726;28;20021;-62
2022/08/26 01:59:21;;;;;;;8.98;2.80;;;20.90;99.90;;;;;;5053702;28;20034;-61
2022/08/26 02:01:48;;;;;;;6.65;2.40;;;20.80;99.90;;;;;;5053589;28;20021;-62
2022/08/26 02:04:47;;;;;;;6.75;2.53;;;20.80;99.90;;;;;;5053549;28;20025;-62
2022/08/26 02:07:27;;;;;;;9.18;2.63;;;20.80;99.90;;;;;;5053558;28;20478;-61
2022/08/26 02:09:52;;;;;;;7.43;2.20;;;20.80;99.90;;;;;;5053657;28;20021;-62
2022/08/26 02:12:19;;;;;;;8.27;2.72;;;20.80;99.90;;;;;;5053505;28;20021;-61
2022/08/26 02:14:50;;;;;;;7.55;2.45;;;20.80;99.90;;;;;;5052062;28;20056;-61
2022/08/26 02:17:23;;;;;;;9.93;2.65;;;20.80;99.90;;;;;;5053643;28;20112;-62
2022/08/26 02:19:49;;;;;;;8.00;2.20;;;20.80;99.90;;;;;;5053564;28;20021;-61
2022/08/26 02:22:21;;;;;;;7.18;1.95;;;20.80;99.90;;;;;;5053162;28;20033;-63
2022/08/26 02:24:57;;;;;;;9.15;2.65;;;20.80;99.90;;;;;;5053690;28;20377;-62
2022/08/26 02:27:27;;;;;;;5.28;1.90;;;20.90;99.90;;;;;;5051984;28;20116;-61
2022/08/26 02:29:57;;;;;;;5.43;1.73;;;20.80;99.90;;;;;;5053158;28;20397;-61
2022/08/26 02:32:23;;;;;;;5.40;1.92;;;20.80;99.90;;;;;;5053043;28;20100;-61
2022/08/26 02:34:49;;;;;;;6.43;2.08;;;20.80;99.90;;;;;;5052810;28;20037;-61
2022/08/26 02:37:14;;;;;;;7.45;2.00;;;20.70;99.90;;;;;;5053119;28;20033;-61
2022/08/26 02:39:42;;;;;;;6.75;2.00;;;20.80;99.90;;;;;;5053110;28;20052;-61
2022/08/26 02:42:08;;;;;;;4.63;1.85;;;20.80;99.90;;;;;;5052740;28;20497;-61
2022/08/26 02:44:34;;;;;;;5.68;1.58;;;20.80;99.90;;;;;;5052746;28;20039;-61
2022/08/26 02:47:00;;;;;;;3.58;1.58;;;20.80;99.90;;;;;;5052893;28;20490;-61
2022/08/26 02:49:29;;;;;;;4.95;1.48;;;20.90;99.90;;;;;;5052938;28;20033;-61
2022/08/26 02:51:55;;;;;;;5.30;1.90;;;20.90;99.90;;;;;;5053174;28;20516;-62
2022/08/26 02:54:21;;;;;;;6.68;1.58;;;20.80;99.90;;;;;;5052507;28;20017;-61
2022/08/26 02:56:47;;;;;;;6.30;1.58;;;20.80;99.90;;;;;;5052508;28;20029;-61
2022/08/26 02:59:14;;;;;;;3.78;1.80;;;20.60;99.90;;;;;;5052583;28;20095;-61
2022/08/26 03:01:41;;;;;;;6.82;1.30;;;20.60;99.90;;;;;;5051162;28;20025;-62
2022/08/26 03:04:09;;;;;;;6.60;1.40;;;20.70;99.90;;;;;;5053084;28;20035;-63
2022/08/26 03:06:36;;;;;;;4.10;1.13;;;20.70;99.90;;;;;;5052448;28;20053;-62
2022/08/26 03:09:03;;;;;;;5.60;1.40;;;20.60;99.90;;;;;;5052580;28;20490;-62
2022/08/26 03:11:30;;;;;;;6.90;1.40;;;20.60;99.90;;;;;;5052281;28;20482;-63
2022/08/26 03:13:56;;;;;;;5.45;1.70;;;20.60;99.90;;;;;;5051060;28;20397;-62
2022/08/26 03:16:22;;;;;;;5.10;1.80;;;20.70;99.90;;;;;;5052611;28;20055;-63
2022/08/26 03:18:48;;;;;;;5.25;1.20;;;20.60;99.90;;;;;;5052486;28;20486;-62
2022/08/26 03:21:15;;;;;;;10.77;1.55;;;20.60;99.90;;;;;;5052326;28;20482;-63
2022/08/26 03:23:42;;;;;;;8.85;1.63;;;20.60;99.90;;;;;;5052207;28;20487;-63
2022/08/26 03:26:10;;;;;;;6.82;1.80;;;20.50;99.90;;;;;;5052028;28;20033;-62
2022/08/26 03:30:38;;;;;;;6.55;1.80;;;20.60;99.90;;;;;;5052180;28;20035;-61
2022/08/26 03:31:21;;;;;;;7.57;1.95;;;20.50;99.90;;;;;;5051924;28;20048;-62
2022/08/26 03:33:47;;;;;;;6.57;1.75;;;20.50;99.90;;;;;;5051635;28;20029;-61
2022/08/26 03:36:12;;;;;;;7.00;2.00;;;20.50;99.90;;;;;;5051931;28;20394;-62
2022/08/26 03:38:38;;;;;;;7.05;1.83;;;20.50;99.90;;;;;;5051494;28;20033;-62
2022/08/26 03:41:04;;;;;;;4.38;1.95;;;20.60;99.90;;;;;;5051632;28;20036;-62
2022/08/26 03:43:29;;;;;;;4.97;1.90;;;20.50;99.90;;;;;;5051944;28;20418;-61
2022/08/26 03:45:55;;;;;;;7.38;2.13;;;20.50;99.90;;;;;;5051533;28;20017;-63
2022/08/26 03:48:21;;;;;;;5.65;1.65;;;20.50;99.90;;;;;;5051702;28;20033;-63
2022/08/26 03:50:46;;;;;;;9.18;2.10;;;20.50;99.90;;;;;;5051514;28;20071;-61
2022/08/26 03:53:12;;;;;;;8.48;2.03;;;20.50;99.90;;;;;;5051646;28;20599;-62
2022/08/26 03:55:37;;;;;;;9.70;2.45;;;20.50;99.90;;;;;;5051727;28;20107;-62
2022/08/26 03:58:03;;;;;;;6.93;1.95;;;20.50;99.90;;;;;;5050286;28;20079;-62
2022/08/26 04:00:29;;;;;;;7.28;1.88;;;20.40;99.90;;;;;;5051081;28;20056;-62
2022/08/26 04:02:55;;;;;;;5.47;1.95;;;20.30;99.90;;;;;;5051342;28;20040;-63
2022/08/26 04:05:22;;;;;;;8.35;2.08;;;20.30;99.90;;;;;;5051308;28;20478;-62
2022/08/26 04:07:47;;;;;;;9.48;2.03;;;20.30;99.90;;;;;;5051585;28;20117;-62
2022/08/26 04:10:16;;;;;;;6.68;2.25;;;20.30;99.90;;;;;;5050041;28;20521;-63
2022/08/26 04:12:42;;;;;;;6.30;1.77;;;20.30;99.90;;;;;;5051235;28;20039;-63
2022/08/26 04:15:11;;;;;;;10.65;2.47;;;20.30;99.90;;;;;;5051361;28;20103;-62
2022/08/26 04:17:37;;;;;;;8.20;2.30;;;20.30;99.90;;;;;;5050999;28;20401;-62
2022/08/26 04:20:04;;;;;;;5.03;1.90;;;20.30;99.90;;;;;;5050018;28;20029;-63
2022/08/26 04:22:30;;;;;;;8.25;2.35;;;20.30;99.90;;;;;;5051209;28;20299;-62
2022/08/26 04:24:56;;;;;;;7.82;1.92;;;20.30;99.90;;;;;;5050992;28;20028;-62
2022/08/26 04:27:22;;;;;;;5.88;2.17;;;20.20;99.90;;;;;;5051156;28;20108;-63
2022/08/26 04:29:48;;;;;;;6.63;1.80;;;20.30;99.90;;;;;;5049892;28;20028;-62
2022/08/26 04:32:14;;;;;;;8.65;1.95;;;20.30;99.90;;;;;;5050848;28;20433;-62
2022/08/26 04:34:40;;;;;;;9.65;2.00;;;20.30;99.90;;;;;;5050970;28;20105;-62
2022/08/26 04:37:07;;;;;;;10.93;2.15;;;20.20;99.90;;;;;;5050794;28;20537;-62
2022/08/26 04:39:33;;;;;;;4.82;1.70;;;20.30;99.90;;;;;;5050857;28;20033;-62
2022/08/26 04:41:59;;;;;;;5.47;1.95;;;20.30;99.90;;;;;;5050976;28;20087;-62
2022/08/26 04:44:28;;;;;;;5.03;1.98;;;20.30;99.90;;;;;;5051062;28;20020;-62
2022/08/26 04:46:55;;;;;;;7.30;2.00;;;20.30;99.90;;;;;;5050696;28;20032;-62
2022/08/26 04:49:21;;;;;;;5.20;1.90;;;20.40;99.90;;;;;;5050847;28;20063;-62
2022/08/26 04:51:47;;;;;;;7.13;2.25;;;20.30;99.90;;;;;;5054926;28;20052;-62
2022/08/26 04:54:14;;;;;;;8.15;2.00;;;20.40;99.90;;;;;;5055047;28;20033;-63
2022/08/26 04:56:43;;;;;;;6.57;1.70;;;20.40;99.90;;;;;;5054697;28;20536;-63
2022/08/26 04:59:14;;;;;;;6.20;1.58;;;20.50;99.90;;;;;;5054647;28;20021;-62
2022/08/26 05:01:43;;;;;;;5.32;2.00;;;20.50;99.90;;;;;;5054786;28;20078;-62
2022/08/26 05:04:08;;;;;;;8.60;1.73;;;20.50;99.90;;;;;;5054847;28;20029;-62
2022/08/26 05:06:34;;;;;;;7.20;1.60;;;20.50;99.90;;;;;;5054428;28;20437;-63
2022/08/26 05:09:00;;;;;;;16.00;2.30;;;20.50;99.90;;;;;;5054750;28;20067;-61
2022/08/26 05:11:26;;;;;;;4.93;1.40;;;20.50;99.90;;;;;;5054773;28;20024;-62
2022/08/26 05:13:52;;;;;;;10.93;1.95;;;20.50;99.90;;;;;;5054504;28;20050;-63
2022/08/26 05:16:18;;;;;;;10.90;1.90;;;20.50;99.90;;;;;;5054714;28;20376;-61
2022/08/26 05:18:44;;;;;;;7.03;1.85;;;20.50;99.90;;;;;;5054689;28;20035;-63
2022/08/26 05:21:25;;;;;;;7.07;1.40;;;20.50;99.90;;;;;;5054646;28;20025;-62
2022/08/26 05:23:51;;;;;;;4.13;1.60;;;20.50;99.90;;;;;;5054323;28;20044;-62
2022/08/26 05:26:25;;;;;;;3.72;1.50;;;20.60;99.90;;;;;;5054642;28;20474;-61
2022/08/26 05:28:52;;;;;;;5.32;1.75;;;20.60;99.90;;;;;;5054677;28;20033;-61
2022/08/26 05:31:23;;;;;;;9.88;1.60;;;20.60;99.90;;;;;;5053983;28;20489;-61
2022/08/26 05:33:49;;;;;;;4.20;1.40;;;20.60;99.90;;;;;;5053868;28;20111;-61
2022/08/26 05:36:18;;;;;;;6.88;1.50;;;20.70;99.90;;;;;;5054049;28;20055;-62
2022/08/26 05:38:44;;;;;;;7.15;1.50;;;20.70;99.90;;;;;;5054287;28;20057;-61
2022/08/26 05:41:27;;;;;;;4.20;1.27;;;20.80;99.90;;;;;;5053667;28;20025;-61
2022/08/26 05:43:54;;;;;;;6.35;1.30;;;20.80;99.90;;;;;;5053720;28;20025;-62
2022/08/26 05:46:20;;;;;;;5.30;1.30;;;20.80;99.90;;;;;;5053394;28;20043;-61
2022/08/26 05:48:46;;;;;;;5.30;1.25;;;20.80;99.90;;;;;;5053910;28;20548;-61
2022/08/26 05:51:12;;;;;;;7.03;1.70;;;20.80;99.90;;;;;;5052316;28;20490;-60
2022/08/26 05:53:40;;;;;;;5.15;1.52;;;20.80;99.90;;;;;;5052350;28;20059;-60
2022/08/26 05:56:08;;;;;;;4.63;1.38;;;20.80;99.90;;;;;;5052144;28;20516;-60
2022/08/26 05:58:35;;;;;;;4.55;1.50;;;20.70;99.90;;;;;;5053542;28;20037;-61
2022/08/26 06:01:05;;;;;;;2.85;1.30;;;20.80;99.90;;;;;;5053123;28;20499;-61
2022/08/26 06:03:33;;;;;;;6.00;1.35;;;20.90;99.90;;;;;;5053671;28;20025;-61
2022/08/26 06:06:03;;;;;;;5.50;1.02;;;20.90;99.90;;;;;;5053542;28;20025;-61
2022/08/26 06:08:29;;;;;;;10.75;2.10;;;21.00;99.90;;;;;;5053926;28;20462;-62
2022/08/26 06:10:59;;;;;;;10.05;2.28;;;21.00;99.90;;;;;;5052122;28;20075;-62
2022/08/26 06:13:26;;;;;;;8.77;1.25;;;21.20;99.90;;;;;;5053469;28;20132;-62
2022/08/26 06:15:53;;;;;;;8.20;1.42;;;21.40;99.90;;;;;;5053082;28;20029;-62
2022/08/26 06:18:26;;;;;;;8.65;1.30;;;21.40;99.90;;;;;;5053263;28;20074;-63
2022/08/26 06:20:53;;;;;;;5.40;1.50;;;21.40;99.90;;;;;;5053295;28;20052;-63
2022/08/26 06:26:04;;;;;;;11.10;1.30;;;21.30;99.90;;;;;;5053065;28;20079;-62
2022/08/26 06:28:30;;;;;;;8.27;1.65;;;21.30;99.90;;;;;;5037494;28;20588;-62
2022/08/26 06:30:56;;;;;;;6.65;1.65;;;21.30;99.90;;;;;;5032791;28;20033;-62
2022/08/26 06:33:23;;;;;;;6.18;1.40;;;21.30;99.90;;;;;;5040295;28;20062;-62
2022/08/26 06:35:49;;;;;;;13.18;1.85;;;21.30;99.90;;;;;;5037154;28;20449;-62
2022/08/26 06:38:16;;;;;;;7.25;1.80;;;21.30;99.90;;;;;;5051448;28;20033;-62
2022/08/26 06:40:45;;;;;;;8.38;1.50;;;21.40;99.90;;;;;;5052793;28;20382;-62
2022/08/26 06:43:11;;;;;;;8.38;1.63;;;21.50;99.90;;;;;;5048414;28;20657;-62
2022/08/26 06:45:38;;;;;;;7.93;1.70;;;21.30;99.90;;;;;;5051036;28;20355;-62
2022/08/26 06:48:05;;;;;;;5.03;1.70;;;21.40;99.90;;;;;;5051393;28;20040;-62
2022/08/26 06:50:32;;;;;;;10.45;1.63;;;21.40;99.90;;;;;;5046428;28;20032;-62
2022/08/26 06:52:58;;;;;;;6.85;2.10;;;21.50;99.90;;;;;;5051380;28;20072;-63
2022/08/26 06:55:24;;;;;;;8.45;1.70;;;21.60;99.90;;;;;;5042633;28;20053;-63
2022/08/26 06:57:49;;;;;;;5.45;1.60;;;21.50;99.90;;;;;;5029416;28;20383;-63
2022/08/26 07:00:17;;;;;;;8.35;1.42;;;21.30;99.90;;;;;;5032801;28;20056;-66
2022/08/26 07:02:43;;;;;;;6.55;1.20;;;21.30;99.90;;;;;;5046016;28;20159;-63
2022/08/26 07:05:09;;;;;;;5.07;1.33;;;21.30;99.90;;;;;;5042932;28;20025;-62
2022/08/26 07:07:35;;;;;;;5.35;1.30;;;21.30;99.90;;;;;;5038633;28;20047;-62
2022/08/26 07:10:00;;;;;;;8.50;1.33;;;21.30;99.90;;;;;;5044837;28;20463;-62
2022/08/26 07:12:26;;;;;;;9.90;1.65;;;21.40;99.90;;;;;;5047583;28;20028;-63
2022/08/26 07:14:52;;;;;;;5.10;0.90;;;21.50;99.90;;;;;;5042727;28;20056;-61
2022/08/26 07:17:18;;;;;;;7.07;1.08;;;21.50;99.90;;;;;;5046167;28;20111;-61
2022/08/26 07:19:45;;;;;;;5.70;1.10;;;21.40;99.90;;;;;;5034519;28;20045;-63
2022/08/26 07:22:11;;;;;;;5.25;1.20;;;21.50;99.90;;;;;;5044245;28;20374;-63
2022/08/26 07:24:42;;;;;;;7.72;1.45;;;21.40;99.90;;;;;;5039015;28;20040;-62
2022/08/26 07:27:12;;;;;;;5.72;1.05;;;21.40;99.90;;;;;;5048521;28;20054;-62
2022/08/26 07:29:39;;;;;;;5.72;1.10;;;21.40;99.90;;;;;;5033667;28;20029;-62
2022/08/26 07:32:06;;;;;;;5.03;1.05;;;21.50;99.90;;;;;;5037914;28;20728;-61
2022/08/26 07:34:33;;;;;;;4.82;1.00;;;21.50;99.90;;;;;;5039392;28;20028;-60
2022/08/26 07:36:59;;;;;;;6.55;1.23;;;21.60;99.90;;;;;;5038382;28;20032;-62
2022/08/26 07:39:25;;;;;;;11.32;1.33;;;21.70;99.90;;;;;;5046266;28;20422;-63
2022/08/26 07:41:51;;;;;;;6.40;1.30;;;21.80;99.90;;;;;;5031964;28;20048;-62
2022/08/26 07:44:17;;;;;;;3.53;1.10;;;22.00;99.90;;;;;;5040664;28;20120;-63
2022/08/26 07:46:44;;;;;;;8.57;1.45;;;22.00;99.90;;;;;;5033320;28;20096;-63
2022/08/26 07:49:10;;;;;;;6.70;1.75;;;22.00;99.90;;;;;;5034362;28;20498;-62
2022/08/26 07:51:37;;;;;;;8.02;1.35;;;21.80;99.90;;;;;;5045269;28;20029;-64
2022/08/26 07:54:04;;;;;;;5.80;1.20;;;21.80;99.90;;;;;;5033926;28;20049;-62
2022/08/26 07:56:30;;;;;;;3.38;1.55;;;21.90;99.90;;;;;;5044809;28;20029;-62
2022/08/26 07:58:56;;;;;;;8.13;1.20;;;22.00;99.90;;;;;;5035481;28;20123;-63
2022/08/26 08:01:24;;;;;;;6.13;1.40;;;22.30;99.90;;;;;;5046638;28;20100;-62
2022/08/26 08:03:52;;;;;;;7.60;1.33;;;22.60;99.90;;;;;;5036052;28;20502;-62
2022/08/26 08:06:24;;;;;;;5.78;1.25;;;22.80;99.90;;;;;;5038241;28;20508;-62
2022/08/26 08:08:50;;;;;;;5.10;1.20;;;22.90;99.90;;;;;;5033625;28;20033;-62
2022/08/26 08:11:19;;;;;;;5.25;1.25;;;22.90;99.90;;;;;;5038092;28;20090;-61
2022/08/26 08:13:44;;;;;;;4.47;1.23;;;23.10;99.90;;;;;;5031333;28;20029;-62
2022/08/26 08:16:10;;;;;;;5.40;0.90;;;23.10;99.90;;;;;;5038826;28;20037;-63
2022/08/26 08:18:36;;;;;;;6.70;1.13;;;23.30;99.90;;;;;;5041718;28;20021;-61
2022/08/26 08:21:02;;;;;;;4.03;1.20;;;23.30;99.90;;;;;;5031017;28;20028;-62
2022/08/26 08:23:30;;;;;;;4.80;1.17;;;23.60;99.90;;;;;;5037628;28;20496;-62
2022/08/26 08:26:08;;;;;;;4.65;1.00;;;23.90;99.90;;;;;;5042078;28;20036;-62
2022/08/26 08:28:34;;;;;;;4.55;1.08;;;23.70;99.90;;;;;;5029200;28;20025;-62
2022/08/26 08:31:00;;;;;;;4.70;1.10;;;23.30;99.90;;;;;;5036880;28;20061;-63
2022/08/26 08:33:28;;;;;;;6.22;1.10;;;23.10;99.90;;;;;;5033446;28;20028;-63
2022/08/26 08:35:55;;;;;;;4.57;1.15;;;23.00;99.90;;;;;;5031929;28;20367;-61
2022/08/26 08:38:21;;;;;;;4.70;1.00;;;23.10;99.90;;;;;;5034638;28;20029;-62
2022/08/26 08:40:47;;;;;;;7.68;1.27;;;23.50;99.90;;;;;;5039362;28;20037;-62
2022/08/26 08:43:38;;;;;;;6.00;1.08;;;23.80;99.90;;;;;;5041694;28;20172;-63
2022/08/26 08:46:12;;;;;;;9.30;0.95;;;24.80;99.90;;;;;;5033085;28;20018;-62
2022/08/26 08:48:45;;;;;;;5.15;1.10;;;25.50;99.90;;;;;;5037271;28;20390;-63
2022/08/26 08:51:50;;;;;;;3.95;0.80;;;25.70;99.90;;;;;;5030919;28;20057;-63
2022/08/26 08:54:16;;;;;;;2.55;0.73;;;25.10;99.90;;;;;;5031258;28;20508;-62
2022/08/26 08:57:11;;;;;;;3.30;0.80;;;24.50;99.90;;;;;;5043612;28;20112;-63
2022/08/26 08:59:50;;;;;;;5.25;0.90;;;24.00;99.90;;;;;;5034505;28;20042;-63
2022/08/26 09:03:01;;;;;;;4.50;1.08;;;23.70;99.90;;;;;;5038210;28;20021;-62
2022/08/26 09:05:38;;;;;;;6.88;0.80;;;23.60;99.90;;;;;;4978691;28;20026;-63
2022/08/26 09:08:11;;;;;;;7.63;0.90;;;23.90;99.90;;;;;;5029385;28;20041;-63
2022/08/26 09:10:38;;;;;;;4.03;0.88;;;24.40;99.90;;;;;;5038978;28;20025;-63
2022/08/26 09:13:07;;;;;;;6.47;1.00;;;24.60;99.90;;;;;;5039998;28;20465;-63
2022/08/26 09:15:35;;;;;;;5.38;0.80;;;24.80;99.90;;;;;;5040091;28;20032;-63
2022/08/26 09:18:37;;;;;;;4.53;1.13;;;24.70;99.90;;;;;;5029986;28;20087;-63
2022/08/26 09:21:06;;;;;;;5.97;0.80;;;24.60;99.90;;;;;;5036445;28;20105;-62
2022/08/26 09:23:35;;;;;;;6.22;1.02;;;24.20;99.90;;;;;;5041887;28;20033;-63
2022/08/26 09:26:12;;;;;;;3.38;0.90;;;23.80;99.90;;;;;;5039794;28;20017;-63
2022/08/26 09:28:41;;;;;;;3.42;0.80;;;23.50;99.90;;;;;;5041633;28;20512;-63
2022/08/26 09:31:31;;;;;;;3.20;0.90;;;23.40;99.90;;;;;;5034328;28;20071;-62
2022/08/26 09:34:12;;;;;;;4.13;1.00;;;23.30;99.90;;;;;;5025455;28;20037;-62
2022/08/26 09:36:39;;;;;;;4.43;0.80;;;23.40;99.90;;;;;;5048337;28;20280;-62
2022/08/26 09:39:26;;;;;;;2.97;0.75;;;23.60;99.90;;;;;;5037979;28;20112;-63
2022/08/26 09:42:04;;;;;;;6.45;0.85;;;24.20;99.90;;;;;;5036955;28;20025;-63
2022/08/26 09:44:30;;;;;;;4.80;0.95;;;24.40;99.90;;;;;;5041220;28;20064;-63
2022/08/26 09:47:05;;;;;;;2.65;0.90;;;24.40;99.90;;;;;;5048345;28;20039;-63
2022/08/26 09:49:33;;;;;;;4.57;0.80;;;24.30;99.90;;;;;;5035747;28;20052;-63
2022/08/26 09:52:19;;;;;;;2.53;0.90;;;24.20;99.90;;;;;;5035582;28;20418;-63
2022/08/26 09:55:02;;;;;;;4.30;1.10;;;24.20;99.90;;;;;;5042449;28;20075;-62
2022/08/26 09:57:32;;;;;;;4.13;0.82;;;24.20;99.90;;;;;;5039181;28;20029;-64
2022/08/26 10:00:00;;;;;;;3.47;0.80;;;24.40;99.90;;;;;;5041236;28;20053;-63
2022/08/26 10:02:40;;;;;;;3.85;0.70;;;24.80;99.90;;;;;;5037145;28;20033;-62
2022/08/26 10:05:09;;;;;;;2.97;0.70;;;24.90;99.90;;;;;;5045672;28;20533;-64
2022/08/26 10:07:49;;;;;;;2.30;0.63;;;24.90;99.90;;;;;;5035935;28;20028;-64
2022/08/26 10:10:25;;;;;;;2.28;0.80;;;25.00;99.90;;;;;;5032983;28;20037;-63
2022/08/26 10:13:07;;;;;;;5.28;0.70;;;25.10;99.90;;;;;;5039253;28;20025;-63
2022/08/26 10:15:51;;;;;;;3.10;0.65;;;25.90;99.90;;;;;;5040098;28;20040;-64
2022/08/26 10:18:24;;;;;;;1.75;0.50;;;26.90;99.90;;;;;;5043435;28;20116;-63
2022/08/26 10:21:21;;;;;;;1.35;0.40;;;27.80;99.90;;;;;;5030807;28;20025;-64
2022/08/26 10:23:54;;;;;;;1.15;0.43;;;27.80;99.90;;;;;;5035858;28;20048;-64
2022/08/26 10:26:50;;;;;;;2.10;0.40;;;27.10;99.90;;;;;;5033427;28;20055;-63
2022/08/26 10:29:21;;;;;;;2.28;0.70;;;27.00;99.90;;;;;;5049164;28;20049;-63
2022/08/26 10:31:57;;;;;;;1.95;0.55;;;26.80;99.90;;;;;;5043030;28;20048;-64
2022/08/26 10:34:23;;;;;;;3.60;0.73;;;26.20;99.90;;;;;;5052086;28;20033;-63
2022/08/26 10:37:11;;;;;;;2.28;0.50;;;25.60;99.90;;;;;;5052997;28;20116;-63
2022/08/26 10:40:00;;;;;;;1.65;0.60;;;25.30;99.90;;;;;;5041124;28;20111;-63
2022/08/26 10:42:34;;;;;;;2.30;0.70;;;25.20;99.90;;;;;;5038626;28;20656;-63
2022/08/26 10:45:13;;;;;;;3.05;0.75;;;25.00;99.90;;;;;;5036205;28;20014;-62
2022/08/26 10:47:48;;;;;;;3.10;0.77;;;25.10;99.90;;;;;;5040678;28;20029;-63
2022/08/26 10:50:14;;;;;;;2.15;0.60;;;25.00;99.90;;;;;;5034155;28;20037;-62
2022/08/26 10:52:59;;;;;;;3.58;0.88;;;25.20;99.90;;;;;;5051210;28;20029;-62
2022/08/26 10:55:46;;;;;;;2.75;0.70;;;25.50;99.90;;;;;;5039382;28;20112;-62
2022/08/26 10:58:53;;;;;;;4.07;0.90;;;25.80;99.90;;;;;;5037779;28;20075;-63
2022/08/26 11:01:42;;;;;;;4.03;0.70;;;26.00;99.90;;;;;;5042014;28;20076;-63
2022/08/26 11:04:27;;;;;;;1.95;0.70;;;26.80;99.90;;;;;;5040131;28;20367;-63
2022/08/26 11:07:37;;;;;;;2.17;0.70;;;27.20;99.90;;;;;;5035940;28;20019;-63
2022/08/26 11:10:08;;;;;;;4.10;0.80;;;27.50;99.90;;;;;;5044629;28;20108;-63
2022/08/26 11:12:33;;;;;;;3.70;0.63;;;27.00;99.90;;;;;;5040829;28;20025;-64
2022/08/26 11:15:11;;;;;;;2.03;0.60;;;27.30;99.90;;;;;;5048638;28;20041;-63
2022/08/26 11:17:45;;;;;;;2.38;0.75;;;27.20;99.90;;;;;;5042297;28;20411;-63
2022/08/26 11:20:35;;;;;;;3.70;0.60;;;27.70;99.90;;;;;;5038820;28;20029;-64
2022/08/26 11:23:21;;;;;;;2.88;0.90;;;28.10;99.90;;;;;;5031826;28;20037;-63
2022/08/26 11:26:09;;;;;;;2.97;0.70;;;28.00;99.90;;;;;;5044874;28;20559;-64
2022/08/26 11:28:40;;;;;;;2.50;0.68;;;29.20;99.90;;;;;;5043511;28;20041;-63
2022/08/26 11:31:29;;;;;;;2.72;0.70;;;28.80;99.90;;;;;;5034438;28;20033;-64
2022/08/26 11:33:59;;;;;;;2.13;0.73;;;29.10;99.90;;;;;;5030747;28;20045;-65
2022/08/26 11:36:44;;;;;;;1.85;0.70;;;28.90;99.90;;;;;;5031334;28;20525;-63
2022/08/26 11:39:17;;;;;;;5.13;0.73;;;29.30;99.90;;;;;;5030577;28;20120;-63
2022/08/26 11:41:46;;;;;;;4.95;0.90;;;28.70;99.90;;;;;;5038587;28;20712;-63
2022/08/26 11:44:21;;;;;;;4.35;0.63;;;28.00;99.90;;;;;;5049746;28;20065;-63
2022/08/26 11:46:59;;;;;;;2.10;1.05;;;27.80;99.90;;;;;;5036169;28;20111;-64
2022/08/26 11:49:30;;;;;;;2.95;0.80;;;28.10;99.90;;;;;;5036593;28;20521;-64
2022/08/26 11:52:14;;;;;;;2.85;0.80;;;28.10;99.90;;;;;;5047670;28;20025;-64
2022/08/26 11:54:57;;;;;;;2.30;0.60;;;28.60;99.80;;;;;;5051393;28;20048;-64
2022/08/26 11:57:23;;;;;;;2.38;0.80;;;28.50;99.90;;;;;;5037205;28;20108;-64
2022/08/26 11:59:48;;;;;;;4.82;0.80;;;27.60;99.90;;;;;;5032508;28;20136;-64
2022/08/26 12:02:16;;;;;;;5.07;0.70;;;27.40;99.90;;;;;;5038260;28;20057;-64
2022/08/26 12:04:45;;;;;;;4.72;0.82;;;26.90;99.90;;;;;;5040571;28;20025;-64
2022/08/26 12:07:11;;;;;;;2.25;0.60;;;26.80;99.90;;;;;;5032019;28;20033;-64
2022/08/26 12:09:50;;;;;;;1.83;0.60;;;26.40;99.90;;;;;;5039846;28;20109;-63
2022/08/26 12:12:22;;;;;;;2.15;0.50;;;26.20;99.90;;;;;;5032525;28;20029;-64
2022/08/26 12:14:47;;;;;;;3.15;0.63;;;26.90;99.90;;;;;;5037502;28;20029;-63
2022/08/26 12:17:16;;;;;;;3.60;0.80;;;27.60;99.90;;;;;;5034715;28;20087;-64
2022/08/26 12:19:42;;;;;;;4.85;0.75;;;28.90;99.60;;;;;;5040852;28;20029;-64
2022/08/26 12:22:24;;;;;;;1.48;0.60;;;28.80;98.50;;;;;;5035499;28;20040;-64
2022/08/26 12:24:59;;;;;;;1.48;0.70;;;28.00;99.60;;;;;;5034405;28;20068;-64
2022/08/26 12:27:28;;;;;;;3.92;0.70;;;27.70;99.90;;;;;;5032396;28;20025;-64
2022/08/26 12:30:06;;;;;;;4.53;0.60;;;28.10;99.90;;;;;;5030756;28;20454;-64
2022/08/26 12:32:33;;;;;;;2.67;0.80;;;28.70;99.30;;;;;;5032218;28;20040;-64
2022/08/26 12:35:01;;;;;;;2.70;0.50;;;29.40;98.10;;;;;;5030651;28;20021;-64
2022/08/26 12:37:31;;;;;;;2.72;0.70;;;28.50;98.50;;;;;;5029565;28;20033;-64
2022/08/26 12:40:26;;;;;;;2.92;0.65;;;28.00;99.70;;;;;;5037461;28;20025;-63
2022/08/26 12:42:52;;;;;;;5.05;0.70;;;27.40;99.90;;;;;;5032530;28;20512;-63
2022/08/26 12:45:28;;;;;;;3.28;0.70;;;26.80;99.90;;;;;;5036066;28;20048;-64
2022/08/26 12:47:56;;;;;;;2.17;0.85;;;26.70;99.90;;;;;;5043767;28;20414;-63
2022/08/26 12:50:27;;;;;;;5.82;0.93;;;26.60;99.90;;;;;;5029796;28;20502;-62
2022/08/26 12:53:01;;;;;;;7.50;0.98;;;26.70;99.90;;;;;;5032526;28;20377;-63
2022/08/26 12:55:38;;;;;;;2.95;0.80;;;26.80;99.90;;;;;;5031504;28;20559;-63
2022/08/26 12:58:28;;;;;;;3.70;0.70;;;26.60;99.90;;;;;;5035277;28;20029;-63
2022/08/26 13:00:56;;;;;;;2.63;0.70;;;26.50;99.90;;;;;;5036747;28;20359;-63
2022/08/26 13:03:33;;;;;;;2.65;0.80;;;26.60;99.90;;;;;;5035825;28;20504;-63
2022/08/26 13:06:21;;;;;;;3.20;0.77;;;26.90;99.90;;;;;;5033903;28;20424;-63